sensor_id;sensor_type;location;lat;lon;timestamp;temperature;humidity
39849;DHT22;25518;47.878;15.914;2023-04-19T00:01:07;6.30;99.90
39849;DHT22;25518;47.878;15.914;2023-04-19T00:03:57;6.30;99.90
39849;DHT22;25518;47.878;15.914;2023-04-19T00:06:46;6.20;99.90
39849;DHT22;25518;47.878;15.914;2023-04-19T00:09:36;6.20;99.90
39849;DHT22;25518;47.878;15.914;2023-04-19T00:12:26;6.20;99.90
39849;DHT22;25518;47.878;15.914;2023-04-19T00:15:15;6.20;99.90
39849;DHT22;25518;47.878;15.914;2023-04-19T00:18:05;4.60;99.90
39849;DHT22;25518;47.878;15.914;2023-04-19T00:20:54;6.10;99.90
39849;DHT22;25518;47.878;15.914;2023-04-19T00:23:44;6.10;99.90
39849;DHT22;25518;47.878;15.914;2023-04-19T00:26:34;6.10;99.90
39849;DHT22;25518;47.878;15.914;2023-04-19T00:29:24;6.00;99.90
39849;DHT22;25518;47.878;15.914;2023-04-19T00:32:14;6.00;99.90
39849;DHT22;25518;47.878;15.914;2023-04-19T00:35:04;6.00;99.90
39849;DHT22;25518;47.878;15.914;2023-04-19T00:37:54;6.00;99.90
39849;DHT22;25518;47.878;15.914;2023-04-19T00:40:44;6.00;99.90
39849;DHT22;25518;47.878;15.914;2023-04-19T00:43:35;6.00;99.90
39849;DHT22;25518;47.878;15.914;2023-04-19T00:46:25;6.00;99.90
39849;DHT22;25518;47.878;15.914;2023-04-19T00:49:17;6.00;99.90
39849;DHT22;25518;47.878;15.914;2023-04-19T00:52:08;5.90;99.90
39849;DHT22;25518;47.878;15.914;2023-04-19T00:54:58;5.90;99.90
39849;DHT22;25518;47.878;15.914;2023-04-19T00:57:48;5.90;99.90
39849;DHT22;25518;47.878;15.914;2023-04-19T01:00:40;5.80;99.90
39849;DHT22;25518;47.878;15.914;2023-04-19T01:03:29;5.80;99.90
39849;DHT22;25518;47.878;15.914;2023-04-19T01:06:19;5.90;99.90
39849;DHT22;25518;47.878;15.914;2023-04-19T01:09:09;6.00;99.90
39849;DHT22;25518;47.878;15.914;2023-04-19T01:12:00;5.90;99.90
39849;DHT22;25518;47.878;15.914;2023-04-19T01:14:51;5.80;99.90
39849;DHT22;25518;47.878;15.914;2023-04-19T01:17:41;5.90;99.90
39849;DHT22;25518;47.878;15.914;2023-04-19T01:20:30;5.80;99.90
39849;DHT22;25518;47.878;15.914;2023-04-19T01:23:20;5.90;99.90
39849;DHT22;25518;47.878;15.914;2023-04-19T01:26:10;6.00;99.90
39849;DHT22;25518;47.878;15.914;2023-04-19T01:28:59;5.90;99.90
39849;DHT22;25518;47.878;15.914;2023-04-19T01:31:49;5.80;99.90
39849;DHT22;25518;47.878;15.914;2023-04-19T01:34:42;5.90;99.90
39849;DHT22;25518;47.878;15.914;2023-04-19T01:37:34;5.90;99.90
39849;DHT22;25518;47.878;15.914;2023-04-19T01:40:25;5.90;99.90
39849;DHT22;25518;47.878;15.914;2023-04-19T01:43:16;5.90;99.90
39849;DHT22;25518;47.878;15.914;2023-04-19T01:46:07;6.00;99.90
39849;DHT22;25518;47.878;15.914;2023-04-19T01:48:56;6.00;99.90
39849;DHT22;25518;47.878;15.914;2023-04-19T01:51:46;6.00;99.90
39849;DHT22;25518;47.878;15.914;2023-04-19T01:54:35;6.20;99.90
39849;DHT22;25518;47.878;15.914;2023-04-19T01:57:25;6.10;99.90
39849;DHT22;25518;47.878;15.914;2023-04-19T02:00:15;6.10;99.90
39849;DHT22;25518;47.878;15.914;2023-04-19T02:03:06;6.20;99.90
39849;DHT22;25518;47.878;15.914;2023-04-19T02:05:55;6.20;99.90
39849;DHT22;25518;47.878;15.914;2023-04-19T02:08:45;6.00;99.90
39849;DHT22;25518;47.878;15.914;2023-04-19T02:11:35;5.40;99.90
39849;DHT22;25518;47.878;15.914;2023-04-19T02:14:24;5.90;99.90
39849;DHT22;25518;47.878;15.914;2023-04-19T02:17:14;5.90;99.90
39849;DHT22;25518;47.878;15.914;2023-04-19T02:20:05;5.90;99.90
39849;DHT22;25518;47.878;15.914;2023-04-19T02:22:56;5.90;99.90
39849;DHT22;25518;47.878;15.914;2023-04-19T02:25:46;6.00;99.90
39849;DHT22;25518;47.878;15.914;2023-04-19T02:28:35;6.00;99.90
39849;DHT22;25518;47.878;15.914;2023-04-19T02:31:27;5.90;99.90
39849;DHT22;25518;47.878;15.914;2023-04-19T02:34:16;5.80;99.90
39849;DHT22;25518;47.878;15.914;2023-04-19T02:37:06;5.70;99.90
39849;DHT22;25518;47.878;15.914;2023-04-19T02:39:56;5.70;99.90
39849;DHT22;25518;47.878;15.914;2023-04-19T02:42:46;5.60;99.90
39849;DHT22;25518;47.878;15.914;2023-04-19T02:45:35;5.40;99.90
39849;DHT22;25518;47.878;15.914;2023-04-19T02:48:25;5.50;99.90
39849;DHT22;25518;47.878;15.914;2023-04-19T02:51:16;5.30;99.90
39849;DHT22;25518;47.878;15.914;2023-04-19T02:54:06;5.40;99.90
39849;DHT22;25518;47.878;15.914;2023-04-19T02:56:55;5.50;99.90
39849;DHT22;25518;47.878;15.914;2023-04-19T02:59:46;5.40;99.90
39849;DHT22;25518;47.878;15.914;2023-04-19T03:19:46;3.10;99.90
39849;DHT22;25518;47.878;15.914;2023-04-19T03:22:37;5.80;99.90
39849;DHT22;25518;47.878;15.914;2023-04-19T03:25:26;5.90;99.90
39849;DHT22;25518;47.878;15.914;2023-04-19T03:28:16;5.80;99.90
39849;DHT22;25518;47.878;15.914;2023-04-19T03:31:05;6.00;99.90
39849;DHT22;25518;47.878;15.914;2023-04-19T03:33:55;5.90;99.90
39849;DHT22;25518;47.878;15.914;2023-04-19T03:36:45;5.90;99.90
39849;DHT22;25518;47.878;15.914;2023-04-19T03:39:35;6.00;99.90
39849;DHT22;25518;47.878;15.914;2023-04-19T03:42:24;6.00;99.90
39849;DHT22;25518;47.878;15.914;2023-04-19T03:45:14;6.10;99.90
39849;DHT22;25518;47.878;15.914;2023-04-19T03:48:03;6.10;99.90
39849;DHT22;25518;47.878;15.914;2023-04-19T03:50:53;6.10;99.90
39849;DHT22;25518;47.878;15.914;2023-04-19T03:53:43;6.10;99.90
39849;DHT22;25518;47.878;15.914;2023-04-19T03:56:32;6.30;99.90
39849;DHT22;25518;47.878;15.914;2023-04-19T03:59:22;6.30;99.90
39849;DHT22;25518;47.878;15.914;2023-04-19T04:02:11;6.30;99.90
39849;DHT22;25518;47.878;15.914;2023-04-19T04:05:01;6.40;99.90
39849;DHT22;25518;47.878;15.914;2023-04-19T04:07:50;4.80;99.90
39849;DHT22;25518;47.878;15.914;2023-04-19T04:10:40;6.20;99.90
39849;DHT22;25518;47.878;15.914;2023-04-19T04:13:30;6.20;99.90
39849;DHT22;25518;47.878;15.914;2023-04-19T04:16:19;6.30;99.90
39849;DHT22;25518;47.878;15.914;2023-04-19T04:19:10;6.10;99.90
39849;DHT22;25518;47.878;15.914;2023-04-19T04:21:59;6.30;99.90
39849;DHT22;25518;47.878;15.914;2023-04-19T04:24:49;6.10;99.90
39849;DHT22;25518;47.878;15.914;2023-04-19T04:27:39;6.10;99.90
39849;DHT22;25518;47.878;15.914;2023-04-19T04:30:29;6.10;99.90
39849;DHT22;25518;47.878;15.914;2023-04-19T04:33:19;6.00;99.90
39849;DHT22;25518;47.878;15.914;2023-04-19T04:36:08;6.10;99.90
39849;DHT22;25518;47.878;15.914;2023-04-19T04:38:59;6.30;99.90
39849;DHT22;25518;47.878;15.914;2023-04-19T04:41:50;6.30;99.90
39849;DHT22;25518;47.878;15.914;2023-04-19T04:44:41;5.80;99.90
39849;DHT22;25518;47.878;15.914;2023-04-19T04:47:31;6.40;99.90
39849;DHT22;25518;47.878;15.914;2023-04-19T04:50:21;6.50;99.90
39849;DHT22;25518;47.878;15.914;2023-04-19T04:53:11;8.50;99.90
39849;DHT22;25518;47.878;15.914;2023-04-19T04:56:01;6.50;99.90
39849;DHT22;25518;47.878;15.914;2023-04-19T04:58:51;6.50;99.90
39849;DHT22;25518;47.878;15.914;2023-04-19T05:01:40;6.40;99.90
39849;DHT22;25518;47.878;15.914;2023-04-19T05:04:30;6.40;99.90
39849;DHT22;25518;47.878;15.914;2023-04-19T05:07:19;6.60;99.90
39849;DHT22;25518;47.878;15.914;2023-04-19T05:10:09;6.50;99.90
39849;DHT22;25518;47.878;15.914;2023-04-19T05:13:00;6.50;99.90
39849;DHT22;25518;47.878;15.914;2023-04-19T05:15:50;6.60;99.90
39849;DHT22;25518;47.878;15.914;2023-04-19T05:18:39;6.60;99.90
39849;DHT22;25518;47.878;15.914;2023-04-19T05:21:29;6.70;99.90
39849;DHT22;25518;47.878;15.914;2023-04-19T05:24:18;6.60;99.90
39849;DHT22;25518;47.878;15.914;2023-04-19T05:27:08;6.70;99.90
39849;DHT22;25518;47.878;15.914;2023-04-19T05:29:58;6.60;99.90
39849;DHT22;25518;47.878;15.914;2023-04-19T05:32:48;6.70;99.90
39849;DHT22;25518;47.878;15.914;2023-04-19T05:35:37;6.60;99.90
39849;DHT22;25518;47.878;15.914;2023-04-19T05:38:27;6.70;99.90
39849;DHT22;25518;47.878;15.914;2023-04-19T05:41:18;6.60;99.90
39849;DHT22;25518;47.878;15.914;2023-04-19T05:44:07;6.60;99.90
39849;DHT22;25518;47.878;15.914;2023-04-19T05:46:57;6.60;99.90
39849;DHT22;25518;47.878;15.914;2023-04-19T05:49:46;5.70;99.90
39849;DHT22;25518;47.878;15.914;2023-04-19T05:52:36;6.60;99.90
39849;DHT22;25518;47.878;15.914;2023-04-19T05:55:26;6.70;99.90
39849;DHT22;25518;47.878;15.914;2023-04-19T05:58:15;6.70;99.90
39849;DHT22;25518;47.878;15.914;2023-04-19T06:01:05;6.70;99.90
39849;DHT22;25518;47.878;15.914;2023-04-19T06:03:55;6.70;99.90
39849;DHT22;25518;47.878;15.914;2023-04-19T06:06:45;6.90;99.90
39849;DHT22;25518;47.878;15.914;2023-04-19T06:09:34;6.90;99.90
39849;DHT22;25518;47.878;15.914;2023-04-19T06:12:24;7.00;99.90
39849;DHT22;25518;47.878;15.914;2023-04-19T06:15:14;7.20;99.90
39849;DHT22;25518;47.878;15.914;2023-04-19T06:18:03;6.80;99.90
39849;DHT22;25518;47.878;15.914;2023-04-19T06:20:55;7.10;99.90
39849;DHT22;25518;47.878;15.914;2023-04-19T06:23:45;7.20;99.90
39849;DHT22;25518;47.878;15.914;2023-04-19T06:26:34;7.20;99.90
39849;DHT22;25518;47.878;15.914;2023-04-19T06:29:24;7.10;99.90
39849;DHT22;25518;47.878;15.914;2023-04-19T06:32:14;7.20;99.90
39849;DHT22;25518;47.878;15.914;2023-04-19T06:35:05;7.30;99.90
39849;DHT22;25518;47.878;15.914;2023-04-19T06:37:54;7.30;99.90
39849;DHT22;25518;47.878;15.914;2023-04-19T06:40:44;7.30;99.90
39849;DHT22;25518;47.878;15.914;2023-04-19T06:43:34;7.30;99.90
39849;DHT22;25518;47.878;15.914;2023-04-19T06:46:23;7.30;99.90
39849;DHT22;25518;47.878;15.914;2023-04-19T06:49:13;7.20;99.90
39849;DHT22;25518;47.878;15.914;2023-04-19T06:52:03;7.30;99.90
39849;DHT22;25518;47.878;15.914;2023-04-19T06:54:52;7.40;99.90
39849;DHT22;25518;47.878;15.914;2023-04-19T06:57:42;7.40;99.90
39849;DHT22;25518;47.878;15.914;2023-04-19T07:00:31;7.40;99.90
39849;DHT22;25518;47.878;15.914;2023-04-19T07:03:21;7.40;99.90
39849;DHT22;25518;47.878;15.914;2023-04-19T07:06:10;7.60;99.90
39849;DHT22;25518;47.878;15.914;2023-04-19T07:09:01;7.60;99.90
39849;DHT22;25518;47.878;15.914;2023-04-19T07:11:52;7.50;99.90
39849;DHT22;25518;47.878;15.914;2023-04-19T07:14:41;7.60;99.90
39849;DHT22;25518;47.878;15.914;2023-04-19T07:17:33;7.50;99.90
39849;DHT22;25518;47.878;15.914;2023-04-19T07:20:24;7.40;99.90
39849;DHT22;25518;47.878;15.914;2023-04-19T07:23:14;7.60;99.90
39849;DHT22;25518;47.878;15.914;2023-04-19T07:26:04;7.60;99.90
39849;DHT22;25518;47.878;15.914;2023-04-19T07:28:53;7.60;99.90
39849;DHT22;25518;47.878;15.914;2023-04-19T07:31:42;7.70;99.90
39849;DHT22;25518;47.878;15.914;2023-04-19T07:34:32;7.60;99.90
39849;DHT22;25518;47.878;15.914;2023-04-19T07:37:22;6.20;99.90
39849;DHT22;25518;47.878;15.914;2023-04-19T07:40:12;7.90;99.90
39849;DHT22;25518;47.878;15.914;2023-04-19T07:43:02;8.00;99.90
39849;DHT22;25518;47.878;15.914;2023-04-19T07:45:52;8.00;99.90
39849;DHT22;25518;47.878;15.914;2023-04-19T07:48:41;8.00;99.90
39849;DHT22;25518;47.878;15.914;2023-04-19T07:51:30;8.00;99.90
39849;DHT22;25518;47.878;15.914;2023-04-19T07:54:20;8.10;99.90
39849;DHT22;25518;47.878;15.914;2023-04-19T07:57:10;8.20;99.90
39849;DHT22;25518;47.878;15.914;2023-04-19T08:00:00;8.10;99.90
39849;DHT22;25518;47.878;15.914;2023-04-19T08:02:50;8.30;99.90
39849;DHT22;25518;47.878;15.914;2023-04-19T08:05:40;8.40;99.90
39849;DHT22;25518;47.878;15.914;2023-04-19T08:08:30;8.50;99.90
39849;DHT22;25518;47.878;15.914;2023-04-19T08:11:20;8.50;99.90
39849;DHT22;25518;47.878;15.914;2023-04-19T08:14:10;8.50;99.90
39849;DHT22;25518;47.878;15.914;2023-04-19T08:17:00;8.60;99.90
39849;DHT22;25518;47.878;15.914;2023-04-19T08:19:50;8.40;99.90
39849;DHT22;25518;47.878;15.914;2023-04-19T08:22:40;8.30;99.90
39849;DHT22;25518;47.878;15.914;2023-04-19T08:25:30;8.30;99.90
39849;DHT22;25518;47.878;15.914;2023-04-19T08:28:19;8.30;99.90
39849;DHT22;25518;47.878;15.914;2023-04-19T08:31:09;8.50;99.90
39849;DHT22;25518;47.878;15.914;2023-04-19T08:33:59;8.50;99.90
39849;DHT22;25518;47.878;15.914;2023-04-19T08:36:50;8.70;99.90
39849;DHT22;25518;47.878;15.914;2023-04-19T08:39:40;8.60;99.90
39849;DHT22;25518;47.878;15.914;2023-04-19T08:42:31;8.80;99.90
39849;DHT22;25518;47.878;15.914;2023-04-19T08:45:23;8.80;99.90
39849;DHT22;25518;47.878;15.914;2023-04-19T08:48:16;8.90;99.90
39849;DHT22;25518;47.878;15.914;2023-04-19T08:51:07;9.00;99.90
39849;DHT22;25518;47.878;15.914;2023-04-19T08:53:58;9.00;99.90
39849;DHT22;25518;47.878;15.914;2023-04-19T08:56:49;9.00;99.90
39849;DHT22;25518;47.878;15.914;2023-04-19T08:59:41;9.00;99.90
39849;DHT22;25518;47.878;15.914;2023-04-19T09:02:53;9.00;99.90
39849;DHT22;25518;47.878;15.914;2023-04-19T09:05:43;9.00;99.90
39849;DHT22;25518;47.878;15.914;2023-04-19T09:08:33;8.80;99.90
39849;DHT22;25518;47.878;15.914;2023-04-19T09:11:36;8.70;99.90
39849;DHT22;25518;47.878;15.914;2023-04-19T09:14:28;8.80;99.90
39849;DHT22;25518;47.878;15.914;2023-04-19T09:17:18;8.70;99.90
39849;DHT22;25518;47.878;15.914;2023-04-19T09:20:08;8.80;99.90
39849;DHT22;25518;47.878;15.914;2023-04-19T09:23:07;8.80;99.90
39849;DHT22;25518;47.878;15.914;2023-04-19T09:25:59;9.00;99.90
39849;DHT22;25518;47.878;15.914;2023-04-19T09:29:06;9.10;99.90
39849;DHT22;25518;47.878;15.914;2023-04-19T09:31:57;9.20;99.90
39849;DHT22;25518;47.878;15.914;2023-04-19T09:34:53;9.40;99.90
39849;DHT22;25518;47.878;15.914;2023-04-19T09:37:58;9.50;99.90
39849;DHT22;25518;47.878;15.914;2023-04-19T09:40:49;9.60;99.90
39849;DHT22;25518;47.878;15.914;2023-04-19T09:43:39;9.50;99.90
39849;DHT22;25518;47.878;15.914;2023-04-19T09:46:34;9.20;99.90
39849;DHT22;25518;47.878;15.914;2023-04-19T09:49:24;9.50;99.90
39849;DHT22;25518;47.878;15.914;2023-04-19T09:52:15;9.10;99.90
39849;DHT22;25518;47.878;15.914;2023-04-19T09:55:06;9.20;99.90
39849;DHT22;25518;47.878;15.914;2023-04-19T09:57:56;9.20;99.90
39849;DHT22;25518;47.878;15.914;2023-04-19T10:00:47;9.10;99.90
39849;DHT22;25518;47.878;15.914;2023-04-19T10:03:38;9.20;99.90
39849;DHT22;25518;47.878;15.914;2023-04-19T10:06:28;9.10;99.90
39849;DHT22;25518;47.878;15.914;2023-04-19T10:09:19;9.00;99.90
39849;DHT22;25518;47.878;15.914;2023-04-19T10:12:09;8.80;99.90
39849;DHT22;25518;47.878;15.914;2023-04-19T10:14:58;8.80;99.90
39849;DHT22;25518;47.878;15.914;2023-04-19T10:17:48;8.80;99.90
39849;DHT22;25518;47.878;15.914;2023-04-19T10:20:48;8.70;99.90
39849;DHT22;25518;47.878;15.914;2023-04-19T10:23:40;8.50;99.90
39849;DHT22;25518;47.878;15.914;2023-04-19T10:26:30;8.40;99.90
39849;DHT22;25518;47.878;15.914;2023-04-19T10:32:51;8.70;99.90
39849;DHT22;25518;47.878;15.914;2023-04-19T10:35:44;8.90;99.90
39849;DHT22;25518;47.878;15.914;2023-04-19T10:38:50;9.10;99.90
39849;DHT22;25518;47.878;15.914;2023-04-19T10:41:56;9.40;99.90
39849;DHT22;25518;47.878;15.914;2023-04-19T10:45:37;9.60;99.90
39849;DHT22;25518;47.878;15.914;2023-04-19T10:54:29;9.30;99.90
39849;DHT22;25518;47.878;15.914;2023-04-19T10:57:19;9.30;99.90
39849;DHT22;25518;47.878;15.914;2023-04-19T11:00:25;9.30;99.90
39849;DHT22;25518;47.878;15.914;2023-04-19T11:03:52;9.20;99.90
39849;DHT22;25518;47.878;15.914;2023-04-19T11:09:49;9.20;99.90
39849;DHT22;25518;47.878;15.914;2023-04-19T11:12:41;9.10;99.90
39849;DHT22;25518;47.878;15.914;2023-04-19T11:15:31;8.90;99.90
39849;DHT22;25518;47.878;15.914;2023-04-19T11:18:21;8.80;99.90
39849;DHT22;25518;47.878;15.914;2023-04-19T11:21:13;8.50;99.90
39849;DHT22;25518;47.878;15.914;2023-04-19T11:24:07;8.50;99.90
39849;DHT22;25518;47.878;15.914;2023-04-19T11:26:57;8.50;99.90
39849;DHT22;25518;47.878;15.914;2023-04-19T11:29:47;8.50;99.90
39849;DHT22;25518;47.878;15.914;2023-04-19T11:32:37;8.50;99.90
39849;DHT22;25518;47.878;15.914;2023-04-19T11:35:28;8.30;99.90
39849;DHT22;25518;47.878;15.914;2023-04-19T11:38:18;8.30;99.90
39849;DHT22;25518;47.878;15.914;2023-04-19T11:41:08;8.30;99.90
39849;DHT22;25518;47.878;15.914;2023-04-19T11:43:58;8.40;99.90
39849;DHT22;25518;47.878;15.914;2023-04-19T11:47:03;8.40;99.90
39849;DHT22;25518;47.878;15.914;2023-04-19T11:49:54;8.40;99.90
39849;DHT22;25518;47.878;15.914;2023-04-19T11:52:48;8.10;99.90
39849;DHT22;25518;47.878;15.914;2023-04-19T11:55:40;8.00;99.90
39849;DHT22;25518;47.878;15.914;2023-04-19T11:58:35;7.90;99.90
39849;DHT22;25518;47.878;15.914;2023-04-19T12:01:28;7.80;99.90
39849;DHT22;25518;47.878;15.914;2023-04-19T12:04:17;7.80;99.90
39849;DHT22;25518;47.878;15.914;2023-04-19T12:07:09;7.90;99.90
39849;DHT22;25518;47.878;15.914;2023-04-19T12:10:08;8.00;99.90
39849;DHT22;25518;47.878;15.914;2023-04-19T12:12:58;8.10;99.90
39849;DHT22;25518;47.878;15.914;2023-04-19T12:15:48;8.20;99.90
39849;DHT22;25518;47.878;15.914;2023-04-19T12:18:46;8.40;99.90
39849;DHT22;25518;47.878;15.914;2023-04-19T12:21:38;8.40;99.90
39849;DHT22;25518;47.878;15.914;2023-04-19T12:24:27;7.90;99.90
39849;DHT22;25518;47.878;15.914;2023-04-19T12:27:17;8.50;99.90
39849;DHT22;25518;47.878;15.914;2023-04-19T12:30:07;8.60;99.90
39849;DHT22;25518;47.878;15.914;2023-04-19T12:32:58;8.80;99.90
39849;DHT22;25518;47.878;15.914;2023-04-19T12:35:48;8.80;99.90
39849;DHT22;25518;47.878;15.914;2023-04-19T12:38:38;8.70;99.90
39849;DHT22;25518;47.878;15.914;2023-04-19T12:41:28;8.50;99.90
39849;DHT22;25518;47.878;15.914;2023-04-19T12:44:17;8.30;99.90
39849;DHT22;25518;47.878;15.914;2023-04-19T12:47:07;8.10;99.90
39849;DHT22;25518;47.878;15.914;2023-04-19T12:49:57;8.10;99.90
39849;DHT22;25518;47.878;15.914;2023-04-19T12:52:47;8.10;99.90
39849;DHT22;25518;47.878;15.914;2023-04-19T12:55:37;7.90;99.90
39849;DHT22;25518;47.878;15.914;2023-04-19T12:58:26;7.80;99.90
39849;DHT22;25518;47.878;15.914;2023-04-19T13:01:16;7.80;99.90
39849;DHT22;25518;47.878;15.914;2023-04-19T13:04:06;7.80;99.90
39849;DHT22;25518;47.878;15.914;2023-04-19T13:07:00;7.60;99.90
39849;DHT22;25518;47.878;15.914;2023-04-19T13:09:49;7.70;99.90
39849;DHT22;25518;47.878;15.914;2023-04-19T13:12:39;8.00;99.90
39849;DHT22;25518;47.878;15.914;2023-04-19T13:15:29;7.90;99.90
39849;DHT22;25518;47.878;15.914;2023-04-19T13:18:19;8.00;99.90
39849;DHT22;25518;47.878;15.914;2023-04-19T13:21:08;8.10;99.90
39849;DHT22;25518;47.878;15.914;2023-04-19T13:23:59;8.00;99.90
39849;DHT22;25518;47.878;15.914;2023-04-19T13:26:49;7.90;99.90
39849;DHT22;25518;47.878;15.914;2023-04-19T13:29:39;7.90;99.90
39849;DHT22;25518;47.878;15.914;2023-04-19T13:32:29;7.90;99.90
39849;DHT22;25518;47.878;15.914;2023-04-19T13:35:18;8.00;99.90
39849;DHT22;25518;47.878;15.914;2023-04-19T13:38:09;8.10;99.90
39849;DHT22;25518;47.878;15.914;2023-04-19T13:40:59;8.10;99.90
39849;DHT22;25518;47.878;15.914;2023-04-19T13:43:49;8.20;99.90
39849;DHT22;25518;47.878;15.914;2023-04-19T13:46:38;8.10;99.90
39849;DHT22;25518;47.878;15.914;2023-04-19T13:49:28;8.10;99.90
39849;DHT22;25518;47.878;15.914;2023-04-19T13:52:19;7.90;99.90
39849;DHT22;25518;47.878;15.914;2023-04-19T13:55:09;7.80;99.90
39849;DHT22;25518;47.878;15.914;2023-04-19T13:57:58;7.80;99.90
39849;DHT22;25518;47.878;15.914;2023-04-19T14:00:48;7.70;99.90
39849;DHT22;25518;47.878;15.914;2023-04-19T14:03:38;7.70;99.90
39849;DHT22;25518;47.878;15.914;2023-04-19T14:06:27;7.90;99.90
39849;DHT22;25518;47.878;15.914;2023-04-19T14:09:17;7.70;99.90
39849;DHT22;25518;47.878;15.914;2023-04-19T14:12:07;7.70;99.90
39849;DHT22;25518;47.878;15.914;2023-04-19T14:14:58;7.70;99.90
39849;DHT22;25518;47.878;15.914;2023-04-19T14:17:48;7.80;99.90
39849;DHT22;25518;47.878;15.914;2023-04-19T14:20:38;7.90;99.90
39849;DHT22;25518;47.878;15.914;2023-04-19T14:23:28;8.00;99.90
39849;DHT22;25518;47.878;15.914;2023-04-19T14:26:18;8.00;99.90
39849;DHT22;25518;47.878;15.914;2023-04-19T14:29:07;7.90;99.90
39849;DHT22;25518;47.878;15.914;2023-04-19T14:31:57;7.90;99.90
39849;DHT22;25518;47.878;15.914;2023-04-19T14:34:47;7.90;99.90
39849;DHT22;25518;47.878;15.914;2023-04-19T14:37:37;7.90;99.90
39849;DHT22;25518;47.878;15.914;2023-04-19T14:40:27;7.70;99.90
39849;DHT22;25518;47.878;15.914;2023-04-19T14:43:17;7.70;99.90
39849;DHT22;25518;47.878;15.914;2023-04-19T14:46:07;7.80;99.90
39849;DHT22;25518;47.878;15.914;2023-04-19T14:48:58;7.80;99.90
39849;DHT22;25518;47.878;15.914;2023-04-19T14:51:51;8.00;99.90
39849;DHT22;25518;47.878;15.914;2023-04-19T14:54:42;8.10;99.90
39849;DHT22;25518;47.878;15.914;2023-04-19T14:57:31;8.20;99.90
39849;DHT22;25518;47.878;15.914;2023-04-19T15:00:21;8.20;99.90
39849;DHT22;25518;47.878;15.914;2023-04-19T15:03:11;8.40;99.90
39849;DHT22;25518;47.878;15.914;2023-04-19T15:06:00;8.40;99.90
39849;DHT22;25518;47.878;15.914;2023-04-19T15:08:52;8.30;99.90
39849;DHT22;25518;47.878;15.914;2023-04-19T15:11:41;8.40;99.90
39849;DHT22;25518;47.878;15.914;2023-04-19T15:14:31;8.30;99.90
39849;DHT22;25518;47.878;15.914;2023-04-19T15:17:20;8.10;99.90
39849;DHT22;25518;47.878;15.914;2023-04-19T15:20:10;8.10;99.90
39849;DHT22;25518;47.878;15.914;2023-04-19T15:23:00;8.00;99.90
39849;DHT22;25518;47.878;15.914;2023-04-19T15:25:51;8.00;99.90
39849;DHT22;25518;47.878;15.914;2023-04-19T15:28:41;6.30;99.90
39849;DHT22;25518;47.878;15.914;2023-04-19T15:31:31;7.90;99.90
39849;DHT22;25518;47.878;15.914;2023-04-19T15:34:21;7.90;99.90
39849;DHT22;25518;47.878;15.914;2023-04-19T15:37:10;7.80;99.90
39849;DHT22;25518;47.878;15.914;2023-04-19T15:40:00;7.90;99.90
39849;DHT22;25518;47.878;15.914;2023-04-19T15:42:49;8.00;99.90
39849;DHT22;25518;47.878;15.914;2023-04-19T15:45:39;8.00;99.90
39849;DHT22;25518;47.878;15.914;2023-04-19T15:48:29;8.10;99.90
39849;DHT22;25518;47.878;15.914;2023-04-19T15:51:19;8.10;99.90
39849;DHT22;25518;47.878;15.914;2023-04-19T15:54:09;8.00;99.90
39849;DHT22;25518;47.878;15.914;2023-04-19T15:57:00;8.00;99.90
39849;DHT22;25518;47.878;15.914;2023-04-19T15:59:49;8.00;99.90
39849;DHT22;25518;47.878;15.914;2023-04-19T16:02:39;7.80;99.90
39849;DHT22;25518;47.878;15.914;2023-04-19T16:05:28;7.70;99.90
39849;DHT22;25518;47.878;15.914;2023-04-19T16:08:18;7.70;99.90
39849;DHT22;25518;47.878;15.914;2023-04-19T16:11:08;7.80;99.90
39849;DHT22;25518;47.878;15.914;2023-04-19T16:13:58;5.80;99.90
39849;DHT22;25518;47.878;15.914;2023-04-19T16:16:47;7.80;99.90
39849;DHT22;25518;47.878;15.914;2023-04-19T16:19:37;7.90;99.90
39849;DHT22;25518;47.878;15.914;2023-04-19T16:22:26;7.60;99.90
39849;DHT22;25518;47.878;15.914;2023-04-19T16:25:16;7.20;99.90
39849;DHT22;25518;47.878;15.914;2023-04-19T16:28:06;7.20;99.90
39849;DHT22;25518;47.878;15.914;2023-04-19T16:30:56;7.10;99.90
39849;DHT22;25518;47.878;15.914;2023-04-19T16:33:46;7.10;99.90
39849;DHT22;25518;47.878;15.914;2023-04-19T16:36:35;7.10;99.90
39849;DHT22;25518;47.878;15.914;2023-04-19T16:39:25;7.10;99.90
39849;DHT22;25518;47.878;15.914;2023-04-19T16:42:15;7.00;99.90
39849;DHT22;25518;47.878;15.914;2023-04-19T16:45:06;7.00;99.90
39849;DHT22;25518;47.878;15.914;2023-04-19T16:47:56;6.90;99.90
39849;DHT22;25518;47.878;15.914;2023-04-19T16:50:47;6.80;99.90
39849;DHT22;25518;47.878;15.914;2023-04-19T16:53:37;5.80;99.90
39849;DHT22;25518;47.878;15.914;2023-04-19T16:56:27;6.80;99.90
39849;DHT22;25518;47.878;15.914;2023-04-19T16:59:17;6.80;99.90
39849;DHT22;25518;47.878;15.914;2023-04-19T17:02:06;7.00;99.90
39849;DHT22;25518;47.878;15.914;2023-04-19T17:04:58;7.00;99.90
39849;DHT22;25518;47.878;15.914;2023-04-19T17:07:48;6.90;99.90
39849;DHT22;25518;47.878;15.914;2023-04-19T17:10:39;6.90;99.90
39849;DHT22;25518;47.878;15.914;2023-04-19T17:13:28;6.70;99.90
39849;DHT22;25518;47.878;15.914;2023-04-19T17:16:18;6.90;99.90
39849;DHT22;25518;47.878;15.914;2023-04-19T17:19:08;6.90;99.90
39849;DHT22;25518;47.878;15.914;2023-04-19T17:21:58;6.60;99.90
39849;DHT22;25518;47.878;15.914;2023-04-19T17:24:53;7.00;99.90
39849;DHT22;25518;47.878;15.914;2023-04-19T17:27:45;6.70;99.90
39849;DHT22;25518;47.878;15.914;2023-04-19T17:30:34;6.70;99.90
39849;DHT22;25518;47.878;15.914;2023-04-19T17:33:24;6.50;99.90
39849;DHT22;25518;47.878;15.914;2023-04-19T17:36:14;6.40;99.90
39849;DHT22;25518;47.878;15.914;2023-04-19T17:39:04;6.40;99.90
39849;DHT22;25518;47.878;15.914;2023-04-19T17:41:56;6.40;99.90
39849;DHT22;25518;47.878;15.914;2023-04-19T17:44:46;6.40;99.90
39849;DHT22;25518;47.878;15.914;2023-04-19T17:47:37;6.40;99.90
39849;DHT22;25518;47.878;15.914;2023-04-19T17:50:27;6.30;99.90
39849;DHT22;25518;47.878;15.914;2023-04-19T17:53:18;6.30;99.90
39849;DHT22;25518;47.878;15.914;2023-04-19T17:56:08;6.50;99.90
39849;DHT22;25518;47.878;15.914;2023-04-19T17:58:57;6.30;99.90
39849;DHT22;25518;47.878;15.914;2023-04-19T18:01:49;6.30;99.90
39849;DHT22;25518;47.878;15.914;2023-04-19T18:04:38;6.20;99.90
39849;DHT22;25518;47.878;15.914;2023-04-19T18:07:33;6.30;99.90
39849;DHT22;25518;47.878;15.914;2023-04-19T18:10:25;6.30;99.90
39849;DHT22;25518;47.878;15.914;2023-04-19T18:13:15;6.30;99.90
39849;DHT22;25518;47.878;15.914;2023-04-19T18:16:05;6.30;99.90
39849;DHT22;25518;47.878;15.914;2023-04-19T18:18:54;6.20;99.90
39849;DHT22;25518;47.878;15.914;2023-04-19T18:21:44;6.10;99.90
39849;DHT22;25518;47.878;15.914;2023-04-19T18:24:35;6.10;99.90
39849;DHT22;25518;47.878;15.914;2023-04-19T18:27:25;6.20;99.90